sensor_id;sensor_type;location;lat;lon;timestamp;temperature;humidity
46752;DHT22;32497;48.936;9.270;2023-05-16T00:00:02;10.70;88.50
46752;DHT22;32497;48.936;9.270;2023-05-16T00:05:06;10.60;88.50
46752;DHT22;32497;48.936;9.270;2023-05-16T00:10:09;10.60;88.80
46752;DHT22;32497;48.936;9.270;2023-05-16T00:15:10;10.70;88.50
46752;DHT22;32497;48.936;9.270;2023-05-16T00:20:12;10.70;88.60
46752;DHT22;32497;48.936;9.270;2023-05-16T00:25:14;10.60;88.70
46752;DHT22;32497;48.936;9.270;2023-05-16T00:30:15;10.50;88.70
46752;DHT22;32497;48.936;9.270;2023-05-16T00:35:18;10.50;88.70
46752;DHT22;32497;48.936;9.270;2023-05-16T00:40:21;10.40;89.10
46752;DHT22;32497;48.936;9.270;2023-05-16T00:45:22;10.40;88.90
46752;DHT22;32497;48.936;9.270;2023-05-16T00:50:23;10.40;89.20
46752;DHT22;32497;48.936;9.270;2023-05-16T00:55:26;10.20;88.90
46752;DHT22;32497;48.936;9.270;2023-05-16T01:00:27;10.10;89.60
46752;DHT22;32497;48.936;9.270;2023-05-16T01:05:28;9.90;89.80
46752;DHT22;32497;48.936;9.270;2023-05-16T01:10:37;9.90;89.60
46752;DHT22;32497;48.936;9.270;2023-05-16T01:15:45;9.90;90.80
46752;DHT22;32497;48.936;9.270;2023-05-16T01:20:50;9.90;90.20
46752;DHT22;32497;48.936;9.270;2023-05-16T01:26:10;9.90;90.10
46752;DHT22;32497;48.936;9.270;2023-05-16T01:31:12;9.90;89.30
46752;DHT22;32497;48.936;9.270;2023-05-16T01:36:20;9.70;89.60
46752;DHT22;32497;48.936;9.270;2023-05-16T01:41:26;9.60;90.60
46752;DHT22;32497;48.936;9.270;2023-05-16T01:46:36;9.60;90.40
46752;DHT22;32497;48.936;9.270;2023-05-16T01:51:38;9.60;90.60
46752;DHT22;32497;48.936;9.270;2023-05-16T01:56:45;9.70;91.10
46752;DHT22;32497;48.936;9.270;2023-05-16T02:01:48;9.80;90.80
46752;DHT22;32497;48.936;9.270;2023-05-16T02:06:49;9.70;90.80
46752;DHT22;32497;48.936;9.270;2023-05-16T02:11:52;9.80;90.20
46752;DHT22;32497;48.936;9.270;2023-05-16T02:17:01;9.70;90.50
46752;DHT22;32497;48.936;9.270;2023-05-16T02:22:02;9.50;90.90
46752;DHT22;32497;48.936;9.270;2023-05-16T02:27:05;9.50;90.60
46752;DHT22;32497;48.936;9.270;2023-05-16T02:32:06;9.30;91.00
46752;DHT22;32497;48.936;9.270;2023-05-16T02:37:07;9.30;90.70
46752;DHT22;32497;48.936;9.270;2023-05-16T02:42:10;9.20;90.90
46752;DHT22;32497;48.936;9.270;2023-05-16T02:47:11;9.20;90.40
46752;DHT22;32497;48.936;9.270;2023-05-16T02:52:12;9.20;90.60
46752;DHT22;32497;48.936;9.270;2023-05-16T02:57:14;9.30;90.80
46752;DHT22;32497;48.936;9.270;2023-05-16T03:02:16;9.50;90.90
46752;DHT22;32497;48.936;9.270;2023-05-16T03:07:17;9.60;90.80
46752;DHT22;32497;48.936;9.270;2023-05-16T03:12:19;9.70;91.20
46752;DHT22;32497;48.936;9.270;2023-05-16T03:17:20;10.00;91.60
46752;DHT22;32497;48.936;9.270;2023-05-16T03:22:21;10.10;90.80
46752;DHT22;32497;48.936;9.270;2023-05-16T03:27:26;10.10;90.50
46752;DHT22;32497;48.936;9.270;2023-05-16T03:32:27;10.10;90.40
46752;DHT22;32497;48.936;9.270;2023-05-16T03:37:28;10.10;90.30
46752;DHT22;32497;48.936;9.270;2023-05-16T03:42:30;10.10;90.20
46752;DHT22;32497;48.936;9.270;2023-05-16T03:47:31;10.20;90.50
46752;DHT22;32497;48.936;9.270;2023-05-16T03:52:33;10.20;90.40
46752;DHT22;32497;48.936;9.270;2023-05-16T03:57:36;10.20;90.20
46752;DHT22;32497;48.936;9.270;2023-05-16T04:02:37;10.30;90.20
46752;DHT22;32497;48.936;9.270;2023-05-16T04:07:38;10.30;89.90
46752;DHT22;32497;48.936;9.270;2023-05-16T04:12:41;10.40;89.90
46752;DHT22;32497;48.936;9.270;2023-05-16T04:17:42;10.60;89.90
46752;DHT22;32497;48.936;9.270;2023-05-16T04:22:43;10.60;89.60
46752;DHT22;32497;48.936;9.270;2023-05-16T04:27:45;10.70;89.70
46752;DHT22;32497;48.936;9.270;2023-05-16T04:32:46;10.60;89.50
46752;DHT22;32497;48.936;9.270;2023-05-16T04:37:48;10.80;89.50
46752;DHT22;32497;48.936;9.270;2023-05-16T04:42:50;10.90;89.30
46752;DHT22;32497;48.936;9.270;2023-05-16T04:47:51;11.10;88.90
46752;DHT22;32497;48.936;9.270;2023-05-16T04:52:52;11.40;89.00
46752;DHT22;32497;48.936;9.270;2023-05-16T04:57:55;11.50;88.60
46752;DHT22;32497;48.936;9.270;2023-05-16T05:02:56;11.70;87.80
46752;DHT22;32497;48.936;9.270;2023-05-16T05:07:57;11.90;87.70
46752;DHT22;32497;48.936;9.270;2023-05-16T05:13:00;12.10;87.20
46752;DHT22;32497;48.936;9.270;2023-05-16T05:18:01;12.20;86.40
46752;DHT22;32497;48.936;9.270;2023-05-16T05:23:02;12.20;86.20
46752;DHT22;32497;48.936;9.270;2023-05-16T05:28:04;12.30;85.50
46752;DHT22;32497;48.936;9.270;2023-05-16T05:33:05;12.40;84.70
46752;DHT22;32497;48.936;9.270;2023-05-16T05:38:07;12.40;84.70
46752;DHT22;32497;48.936;9.270;2023-05-16T05:43:09;12.50;84.50
46752;DHT22;32497;48.936;9.270;2023-05-16T05:48:10;12.50;84.20
46752;DHT22;32497;48.936;9.270;2023-05-16T05:53:12;12.70;83.80
46752;DHT22;32497;48.936;9.270;2023-05-16T05:58:14;12.90;82.70
46752;DHT22;32497;48.936;9.270;2023-05-16T06:03:15;13.00;83.00
46752;DHT22;32497;48.936;9.270;2023-05-16T06:08:16;13.10;82.70
46752;DHT22;32497;48.936;9.270;2023-05-16T06:13:19;12.90;82.90
46752;DHT22;32497;48.936;9.270;2023-05-16T06:18:20;13.20;82.30
46752;DHT22;32497;48.936;9.270;2023-05-16T06:23:21;13.50;81.80
46752;DHT22;32497;48.936;9.270;2023-05-16T06:28:24;13.70;80.70
46752;DHT22;32497;48.936;9.270;2023-05-16T06:33:25;13.90;78.70
46752;DHT22;32497;48.936;9.270;2023-05-16T06:38:26;14.00;78.60
46752;DHT22;32497;48.936;9.270;2023-05-16T06:43:28;14.30;77.70
46752;DHT22;32497;48.936;9.270;2023-05-16T06:48:29;14.30;77.10
46752;DHT22;32497;48.936;9.270;2023-05-16T06:53:30;14.30;77.80
46752;DHT22;32497;48.936;9.270;2023-05-16T06:58:33;14.20;77.10
46752;DHT22;32497;48.936;9.270;2023-05-16T07:03:34;14.00;77.70
46752;DHT22;32497;48.936;9.270;2023-05-16T07:08:35;13.70;77.00
46752;DHT22;32497;48.936;9.270;2023-05-16T07:13:38;13.60;77.40
46752;DHT22;32497;48.936;9.270;2023-05-16T07:18:39;13.70;76.20
46752;DHT22;32497;48.936;9.270;2023-05-16T07:23:40;13.70;75.20
46752;DHT22;32497;48.936;9.270;2023-05-16T07:28:42;13.70;78.40
46752;DHT22;32497;48.936;9.270;2023-05-16T07:33:43;13.90;78.00
46752;DHT22;32497;48.936;9.270;2023-05-16T07:38:45;14.20;76.80
46752;DHT22;32497;48.936;9.270;2023-05-16T07:43:47;14.50;75.50
46752;DHT22;32497;48.936;9.270;2023-05-16T07:48:48;14.50;75.40
46752;DHT22;32497;48.936;9.270;2023-05-16T07:53:49;14.20;76.50
46752;DHT22;32497;48.936;9.270;2023-05-16T07:58:52;15.00;74.80
46752;DHT22;32497;48.936;9.270;2023-05-16T08:03:53;14.70;74.30
46752;DHT22;32497;48.936;9.270;2023-05-16T08:08:54;14.60;75.40
46752;DHT22;32497;48.936;9.270;2023-05-16T08:13:57;14.40;75.60
46752;DHT22;32497;48.936;9.270;2023-05-16T08:18:58;14.50;75.90
46752;DHT22;32497;48.936;9.270;2023-05-16T08:23:59;14.40;73.20
46752;DHT22;32497;48.936;9.270;2023-05-16T08:29:01;14.50;73.60
46752;DHT22;32497;48.936;9.270;2023-05-16T08:34:02;14.30;73.00
46752;DHT22;32497;48.936;9.270;2023-05-16T08:39:04;14.10;75.50
46752;DHT22;32497;48.936;9.270;2023-05-16T08:44:06;13.70;77.20
46752;DHT22;32497;48.936;9.270;2023-05-16T08:49:09;13.60;78.30
46752;DHT22;32497;48.936;9.270;2023-05-16T08:54:11;13.70;77.80
46752;DHT22;32497;48.936;9.270;2023-05-16T08:59:14;13.50;78.20
46752;DHT22;32497;48.936;9.270;2023-05-16T09:04:16;13.50;79.10
46752;DHT22;32497;48.936;9.270;2023-05-16T09:09:17;13.60;78.80
46752;DHT22;32497;48.936;9.270;2023-05-16T09:14:19;13.70;77.90
46752;DHT22;32497;48.936;9.270;2023-05-16T09:19:22;13.60;78.00
46752;DHT22;32497;48.936;9.270;2023-05-16T09:24:24;13.60;78.70
46752;DHT22;32497;48.936;9.270;2023-05-16T09:29:27;13.70;78.00
46752;DHT22;32497;48.936;9.270;2023-05-16T09:34:29;14.00;77.30
46752;DHT22;32497;48.936;9.270;2023-05-16T09:39:30;14.30;76.50
46752;DHT22;32497;48.936;9.270;2023-05-16T09:44:32;14.10;77.10
46752;DHT22;32497;48.936;9.270;2023-05-16T09:49:36;13.80;78.30
46752;DHT22;32497;48.936;9.270;2023-05-16T09:54:37;13.70;79.00
46752;DHT22;32497;48.936;9.270;2023-05-16T09:59:39;13.70;79.40
46752;DHT22;32497;48.936;9.270;2023-05-16T10:04:41;14.00;77.80
46752;DHT22;32497;48.936;9.270;2023-05-16T10:09:42;14.20;77.30
46752;DHT22;32497;48.936;9.270;2023-05-16T10:14:45;14.70;76.40
46752;DHT22;32497;48.936;9.270;2023-05-16T10:19:47;14.70;76.10
46752;DHT22;32497;48.936;9.270;2023-05-16T10:24:56;14.40;75.90
46752;DHT22;32497;48.936;9.270;2023-05-16T10:30:01;14.60;75.70
46752;DHT22;32497;48.936;9.270;2023-05-16T10:35:02;14.80;75.40
46752;DHT22;32497;48.936;9.270;2023-05-16T10:40:05;14.20;75.90
46752;DHT22;32497;48.936;9.270;2023-05-16T10:45:19;14.00;78.30
46752;DHT22;32497;48.936;9.270;2023-05-16T10:50:33;13.70;79.00
46752;DHT22;32497;48.936;9.270;2023-05-16T10:55:35;13.70;79.30
46752;DHT22;32497;48.936;9.270;2023-05-16T11:00:38;13.70;78.80
46752;DHT22;32497;48.936;9.270;2023-05-16T11:05:40;13.10;84.50
46752;DHT22;32497;48.936;9.270;2023-05-16T11:10:41;12.60;87.30
46752;DHT22;32497;48.936;9.270;2023-05-16T11:15:43;12.20;87.70
46752;DHT22;32497;48.936;9.270;2023-05-16T11:20:45;12.10;88.70
46752;DHT22;32497;48.936;9.270;2023-05-16T11:25:47;12.00;87.40
46752;DHT22;32497;48.936;9.270;2023-05-16T11:30:51;12.20;88.30
46752;DHT22;32497;48.936;9.270;2023-05-16T11:36:11;12.00;87.30
46752;DHT22;32497;48.936;9.270;2023-05-16T11:41:12;12.00;87.10
46752;DHT22;32497;48.936;9.270;2023-05-16T11:46:14;12.00;85.40
46752;DHT22;32497;48.936;9.270;2023-05-16T11:51:17;12.20;85.80
46752;DHT22;32497;48.936;9.270;2023-05-16T11:56:19;12.20;85.00
46752;DHT22;32497;48.936;9.270;2023-05-16T12:01:22;12.20;84.20
46752;DHT22;32497;48.936;9.270;2023-05-16T12:06:23;12.30;84.30
46752;DHT22;32497;48.936;9.270;2023-05-16T12:11:24;12.30;83.70
46752;DHT22;32497;48.936;9.270;2023-05-16T12:16:27;12.30;84.10
46752;DHT22;32497;48.936;9.270;2023-05-16T12:21:28;12.20;83.30
46752;DHT22;32497;48.936;9.270;2023-05-16T12:26:31;12.30;83.40
46752;DHT22;32497;48.936;9.270;2023-05-16T12:31:37;12.30;82.90
46752;DHT22;32497;48.936;9.270;2023-05-16T12:36:38;12.70;82.10
46752;DHT22;32497;48.936;9.270;2023-05-16T12:41:40;13.30;80.40
46752;DHT22;32497;48.936;9.270;2023-05-16T12:46:44;13.40;79.20
46752;DHT22;32497;48.936;9.270;2023-05-16T12:51:49;13.40;77.80
46752;DHT22;32497;48.936;9.270;2023-05-16T12:56:50;13.10;79.80
46752;DHT22;32497;48.936;9.270;2023-05-16T13:01:52;12.90;80.80
46752;DHT22;32497;48.936;9.270;2023-05-16T13:06:53;12.70;80.50
46752;DHT22;32497;48.936;9.270;2023-05-16T13:11:54;12.90;80.10
46752;DHT22;32497;48.936;9.270;2023-05-16T13:16:57;12.90;79.00
46752;DHT22;32497;48.936;9.270;2023-05-16T13:21:58;13.20;79.00
46752;DHT22;32497;48.936;9.270;2023-05-16T13:26:59;13.20;76.10
46752;DHT22;32497;48.936;9.270;2023-05-16T13:32:01;12.90;77.30
46752;DHT22;32497;48.936;9.270;2023-05-16T13:37:03;12.90;77.20
46752;DHT22;32497;48.936;9.270;2023-05-16T13:42:04;12.70;77.10
46752;DHT22;32497;48.936;9.270;2023-05-16T13:47:07;12.70;77.30
46752;DHT22;32497;48.936;9.270;2023-05-16T13:52:08;12.80;76.10
46752;DHT22;32497;48.936;9.270;2023-05-16T13:57:09;13.00;75.80
46752;DHT22;32497;48.936;9.270;2023-05-16T14:02:12;13.10;75.60
46752;DHT22;32497;48.936;9.270;2023-05-16T14:07:13;13.00;74.20
46752;DHT22;32497;48.936;9.270;2023-05-16T14:12:14;13.00;74.50
46752;DHT22;32497;48.936;9.270;2023-05-16T14:17:16;13.10;74.30
46752;DHT22;32497;48.936;9.270;2023-05-16T14:22:17;13.20;73.30
46752;DHT22;32497;48.936;9.270;2023-05-16T14:27:18;13.30;73.40
46752;DHT22;32497;48.936;9.270;2023-05-16T14:32:21;13.60;72.70
46752;DHT22;32497;48.936;9.270;2023-05-16T14:37:22;13.90;72.70
46752;DHT22;32497;48.936;9.270;2023-05-16T14:42:23;13.90;70.30
46752;DHT22;32497;48.936;9.270;2023-05-16T14:47:26;13.70;70.70
46752;DHT22;32497;48.936;9.270;2023-05-16T14:52:27;13.60;70.90
46752;DHT22;32497;48.936;9.270;2023-05-16T14:57:28;13.90;70.10
46752;DHT22;32497;48.936;9.270;2023-05-16T15:02:30;14.40;69.10
46752;DHT22;32497;48.936;9.270;2023-05-16T15:07:32;14.80;66.30
46752;DHT22;32497;48.936;9.270;2023-05-16T15:12:33;14.80;66.60
46752;DHT22;32497;48.936;9.270;2023-05-16T15:17:35;14.60;65.60
46752;DHT22;32497;48.936;9.270;2023-05-16T15:22:38;14.70;66.30
46752;DHT22;32497;48.936;9.270;2023-05-16T15:27:39;14.40;66.70
46752;DHT22;32497;48.936;9.270;2023-05-16T15:32:42;14.20;68.20
46752;DHT22;32497;48.936;9.270;2023-05-16T15:37:43;14.20;69.00
46752;DHT22;32497;48.936;9.270;2023-05-16T15:42:44;14.20;66.90
46752;DHT22;32497;48.936;9.270;2023-05-16T15:47:46;14.10;66.60
46752;DHT22;32497;48.936;9.270;2023-05-16T15:52:47;13.80;67.30
46752;DHT22;32497;48.936;9.270;2023-05-16T15:57:48;13.70;67.10
46752;DHT22;32497;48.936;9.270;2023-05-16T16:02:51;13.70;66.30
46752;DHT22;32497;48.936;9.270;2023-05-16T16:07:52;13.70;65.60
46752;DHT22;32497;48.936;9.270;2023-05-16T16:12:59;13.70;63.00
46752;DHT22;32497;48.936;9.270;2023-05-16T16:18:02;13.80;62.00
46752;DHT22;32497;48.936;9.270;2023-05-16T16:23:03;13.80;61.70
46752;DHT22;32497;48.936;9.270;2023-05-16T16:28:04;14.20;60.90
46752;DHT22;32497;48.936;9.270;2023-05-16T16:33:07;14.20;60.30
46752;DHT22;32497;48.936;9.270;2023-05-16T16:38:08;13.90;59.60
46752;DHT22;32497;48.936;9.270;2023-05-16T16:43:09;13.80;60.60
46752;DHT22;32497;48.936;9.270;2023-05-16T16:48:11;14.10;59.40
46752;DHT22;32497;48.936;9.270;2023-05-16T16:53:12;14.10;58.40
46752;DHT22;32497;48.936;9.270;2023-05-16T16:58:13;14.20;59.00
46752;DHT22;32497;48.936;9.270;2023-05-16T17:03:16;14.30;58.00
46752;DHT22;32497;48.936;9.270;2023-05-16T17:08:17;14.20;55.60
46752;DHT22;32497;48.936;9.270;2023-05-16T17:13:18;14.20;55.00
46752;DHT22;32497;48.936;9.270;2023-05-16T17:18:21;14.20;58.00
46752;DHT22;32497;48.936;9.270;2023-05-16T17:23:22;14.30;54.90
46752;DHT22;32497;48.936;9.270;2023-05-16T17:28:23;14.50;53.70
46752;DHT22;32497;48.936;9.270;2023-05-16T17:33:26;14.50;53.80
46752;DHT22;32497;48.936;9.270;2023-05-16T17:38:27;14.40;53.40
46752;DHT22;32497;48.936;9.270;2023-05-16T17:43:29;14.60;54.50
46752;DHT22;32497;48.936;9.270;2023-05-16T17:48:31;14.50;52.30
46752;DHT22;32497;48.936;9.270;2023-05-16T17:53:32;14.50;51.70
46752;DHT22;32497;48.936;9.270;2023-05-16T17:58:33;14.30;52.40
46752;DHT22;32497;48.936;9.270;2023-05-16T18:03:36;14.20;50.30
46752;DHT22;32497;48.936;9.270;2023-05-16T18:08:37;13.90;50.70
46752;DHT22;32497;48.936;9.270;2023-05-16T18:13:38;13.70;50.40
46752;DHT22;32497;48.936;9.270;2023-05-16T18:18:41;13.60;51.00
46752;DHT22;32497;48.936;9.270;2023-05-16T18:23:42;13.30;51.70
46752;DHT22;32497;48.936;9.270;2023-05-16T18:28:43;13.10;52.60
46752;DHT22;32497;48.936;9.270;2023-05-16T18:33:46;12.90;52.90
46752;DHT22;32497;48.936;9.270;2023-05-16T18:38:47;13.00;52.00
46752;DHT22;32497;48.936;9.270;2023-05-16T18:43:48;12.90;51.60
46752;DHT22;32497;48.936;9.270;2023-05-16T18:48:51;12.80;51.80
46752;DHT22;32497;48.936;9.270;2023-05-16T18:53:52;12.70;52.60
46752;DHT22;32497;48.936;9.270;2023-05-16T18:58:53;12.40;52.70
46752;DHT22;32497;48.936;9.270;2023-05-16T19:04:01;12.30;54.10
46752;DHT22;32497;48.936;9.270;2023-05-16T19:09:09;12.20;53.60
46752;DHT22;32497;48.936;9.270;2023-05-16T19:14:13;12.10;54.10
46752;DHT22;32497;48.936;9.270;2023-05-16T19:31:09;11.50;55.80
46752;DHT22;32497;48.936;9.270;2023-05-16T19:41:28;11.20;56.60
46752;DHT22;32497;48.936;9.270;2023-05-16T19:46:30;11.10;56.80
46752;DHT22;32497;48.936;9.270;2023-05-16T19:51:31;11.10;57.70
46752;DHT22;32497;48.936;9.270;2023-05-16T19:56:33;11.10;57.40
46752;DHT22;32497;48.936;9.270;2023-05-16T20:01:34;11.10;57.00
46752;DHT22;32497;48.936;9.270;2023-05-16T20:06:35;11.10;57.30
46752;DHT22;32497;48.936;9.270;2023-05-16T20:11:38;10.90;58.10
46752;DHT22;32497;48.936;9.270;2023-05-16T20:16:39;10.70;58.70
46752;DHT22;32497;48.936;9.270;2023-05-16T20:21:40;10.60;59.90
46752;DHT22;32497;48.936;9.270;2023-05-16T20:26:43;10.40;60.40
46752;DHT22;32497;48.936;9.270;2023-05-16T20:31:44;10.40;60.50
46752;DHT22;32497;48.936;9.270;2023-05-16T20:36:45;10.20;61.10
46752;DHT22;32497;48.936;9.270;2023-05-16T20:41:47;10.20;61.70
46752;DHT22;32497;48.936;9.270;2023-05-16T20:46:48;10.10;62.00
46752;DHT22;32497;48.936;9.270;2023-05-16T20:51:50;10.10;61.90
46752;DHT22;32497;48.936;9.270;2023-05-16T20:56:52;9.90;62.50
46752;DHT22;32497;48.936;9.270;2023-05-16T21:01:53;9.90;62.30
46752;DHT22;32497;48.936;9.270;2023-05-16T21:06:54;9.80;62.20
46752;DHT22;32497;48.936;9.270;2023-05-16T21:11:57;9.80;62.50
46752;DHT22;32497;48.936;9.270;2023-05-16T21:16:58;9.70;62.60
46752;DHT22;32497;48.936;9.270;2023-05-16T21:21:59;9.70;62.30
46752;DHT22;32497;48.936;9.270;2023-05-16T21:27:02;9.60;62.10
46752;DHT22;32497;48.936;9.270;2023-05-16T21:32:04;9.50;62.60
46752;DHT22;32497;48.936;9.270;2023-05-16T21:37:05;9.50;62.70
46752;DHT22;32497;48.936;9.270;2023-05-16T21:42:08;9.40;62.30
46752;DHT22;32497;48.936;9.270;2023-05-16T21:47:09;9.40;62.70
46752;DHT22;32497;48.936;9.270;2023-05-16T21:52:10;9.20;63.10
46752;DHT22;32497;48.936;9.270;2023-05-16T21:57:12;9.10;64.30
46752;DHT22;32497;48.936;9.270;2023-05-16T22:02:14;9.10;65.30
46752;DHT22;32497;48.936;9.270;2023-05-16T22:07:15;9.00;65.10
46752;DHT22;32497;48.936;9.270;2023-05-16T22:12:17;8.90;65.70
46752;DHT22;32497;48.936;9.270;2023-05-16T22:17:19;8.70;65.90
46752;DHT22;32497;48.936;9.270;2023-05-16T22:22:20;8.70;66.20
46752;DHT22;32497;48.936;9.270;2023-05-16T22:27:22;8.70;64.90
46752;DHT22;32497;48.936;9.270;2023-05-16T22:32:24;8.70;65.10
46752;DHT22;32497;48.936;9.270;2023-05-16T22:37:25;8.70;65.20
46752;DHT22;32497;48.936;9.270;2023-05-16T22:42:27;8.70;65.90
46752;DHT22;32497;48.936;9.270;2023-05-16T22:47:28;8.50;68.50
46752;DHT22;32497;48.936;9.270;2023-05-16T22:52:29;8.40;68.80
46752;DHT22;32497;48.936;9.270;2023-05-16T22:57:32;8.30;70.70
46752;DHT22;32497;48.936;9.270;2023-05-16T23:02:33;8.00;71.90
46752;DHT22;32497;48.936;9.270;2023-05-16T23:07:34;7.70;72.90
46752;DHT22;32497;48.936;9.270;2023-05-16T23:12:37;7.60;73.00
46752;DHT22;32497;48.936;9.270;2023-05-16T23:17:38;7.60;73.00
46752;DHT22;32497;48.936;9.270;2023-05-16T23:22:39;7.50;73.00
46752;DHT22;32497;48.936;9.270;2023-05-16T23:27:41;7.40;73.60
46752;DHT22;32497;48.936;9.270;2023-05-16T23:32:42;7.40;73.90
46752;DHT22;32497;48.936;9.270;2023-05-16T23:37:43;7.20;74.60
46752;DHT22;32497;48.936;9.270;2023-05-16T23:42:46;7.10;74.90
46752;DHT22;32497;48.936;9.270;2023-05-16T23:47:47;7.10;74.60
46752;DHT22;32497;48.936;9.270;2023-05-16T23:52:48;7.10;74.60
46752;DHT22;32497;48.936;9.270;2023-05-16T23:57:51;6.90;75.20
